Flight Track Log - Related Links

Times and Time Zones

All times are in EDT time to prevent confusion due to time zone crossing. See the N357DW flight status page for this flight to view local times or setup timezone preferences in your user account.

Time Position Orientation Groundspeed Altitude Reporting Facility
EDT Latitude Longitude Course Direction KTS MPH feet Rate Location/Type
Sat 01:23:02 PM 32.7333 -83.6167 360° North 94 108 1,800  Level Atlanta TRACON
Sat 01:24:03 PM 32.7500 -83.6167 360° North 100 115 2,400 550 Climbing Atlanta TRACON
Sat 01:25:02 PM 32.7833 -83.6167 360° North 96 110 2,900 504 Climbing Atlanta TRACON
Sat 01:26:02 PM 32.8000 -83.6167 360° North 98 113 3,400 470 Climbing Atlanta TRACON
Sat 01:26:57 PM 32.8333 -83.6167 360° North 95 109 3,800 545 Climbing Atlanta TRACON
Sat 01:27:00 PM 32.8714 -83.6500 North  Level FlightAware Approximate
Sat 01:28:03 PM 32.8667 -83.6333 337° Northwest 102 117 4,500  Level Atlanta TRACON
Sat 01:29:03 PM 32.8833 -83.6333 360° North 105 121 4,800 448 Climbing Atlanta TRACON
Sat 01:30:57 PM 32.9500 -83.6333 360° North 105 121 5,800 414 Climbing Atlanta TRACON
Sat 01:31:57 PM 32.9833 -83.6333 360° North 127 146 6,000 95 Climbing Atlanta TRACON
Sat 01:33:03 PM 33.0167 -83.6500 337° Northwest 123 142 6,000  Level Atlanta TRACON
Sat 01:34:02 PM 33.0500 -83.6500 360° North 124 143 6,000 250 Level Atlanta TRACON
Sat 01:35:03 PM 33.0833 -83.6500 360° North 110 127 6,500 470 Climbing Atlanta TRACON
Sat 01:35:57 PM 33.1000 -83.6500 360° North 105 121 6,900 400 Climbing Atlanta TRACON
Sat 01:37:03 PM 33.1500 -83.6500 360° North 113 130 7,300 333 Climbing Atlanta TRACON
Sat 01:38:03 PM 33.1833 -83.6500 360° North 116 133 7,600 300 Climbing Atlanta TRACON
Sat 01:39:03 PM 33.2000 -83.6500 360° North 118 136 7,900 200 Climbing Atlanta TRACON
Sat 01:40:03 PM 33.2333 -83.6500 360° North 121 139 8,000 50 Climbing Atlanta TRACON
Sat 01:41:03 PM 33.2833 -83.6500 360° North 130 150 8,000  Level Atlanta TRACON
Sat 01:42:03 PM 33.3167 -83.6500 360° North 124 143 8,000  Level Atlanta TRACON
Sat 01:44:03 PM 33.3833 -83.6667 348° North 132 152 8,000  Level Atlanta TRACON
Sat 01:45:03 PM 33.4167 -83.6833 337° Northwest 128 147 8,000  Level Atlanta TRACON
Sat 01:47:03 PM 33.4667 -83.7333 320° Northwest 133 153 8,000  Level Atlanta TRACON
Sat 01:48:02 PM 33.5000 -83.7667 320° Northwest 130 150 8,000  Level Atlanta TRACON
Sat 01:50:02 PM 33.5667 -83.8000 337° Northwest 133 153 8,000  Level Atlanta TRACON
Sat 01:51:03 PM 33.6000 -83.8167 337° Northwest 132 152 8,000  Level Atlanta TRACON
Sat 01:53:03 PM 33.6667 -83.8333 348° North 132 152 8,000  Level Atlanta TRACON
Sat 01:54:03 PM 33.7167 -83.8333 360° North 131 151 8,000  Level Atlanta TRACON
Sat 01:55:03 PM 33.7500 -83.8333 360° North 133 153 8,000  Level Atlanta TRACON
Sat 01:56:03 PM 33.7833 -83.8500 337° Northwest 133 153 8,000  Level Atlanta TRACON
Sat 01:57:03 PM 33.8167 -83.8833 320° Northwest 134 154 8,000  Level Atlanta TRACON
Sat 01:58:03 PM 33.8333 -83.9000 320° Northwest 125 144 8,000 -100 Level Atlanta TRACON
Sat 01:59:03 PM 33.8667 -83.9167 337° Northwest 130 150 7,800 -600 Descending Atlanta TRACON
Sat 02:01:03 PM 33.8833 -84.0000 284° West 123 142 6,200 -800 Descending Atlanta TRACON
Sat 02:02:03 PM 33.9000 -84.0333 301° West 127 146 5,400 -750 Descending Atlanta TRACON
Sat 02:03:03 PM 33.9167 -84.0667 301° West 134 154 4,700 -750 Descending Atlanta TRACON
Sat 02:04:03 PM 33.9333 -84.1000 301° West 131 151 3,900 -567 Descending Atlanta TRACON
Sat 02:06:03 PM 33.9833 -84.1667 312° West 116 133 3,000 -160 Descending Atlanta TRACON
Sat 02:08:00 PM 34.0310 -84.2071 267° West  Level FlightAware Approximate
Sat 02:09:03 PM 34.0167 -84.2667 267° West 130 150 3,100  Level Atlanta TRACON
Sat 02:09:57 PM 34.0167 -84.3000 270° West 125 144 3,100  Level Atlanta TRACON
Sat 02:11:03 PM 34.0167 -84.3500 270° West 118 136 3,100  Level Atlanta TRACON
Sat 02:11:57 PM 34.0167 -84.3833 270° West 112 129 3,100  Level Atlanta TRACON
Sat 02:13:03 PM 34.0167 -84.4167 270° West 105 121 3,100  Level Atlanta TRACON
Sat 02:14:03 PM 34.0167 -84.4500 270° West 99 114 3,100 -250 Level Atlanta TRACON
Sat 02:15:03 PM 34.0167 -84.5000 270° West 119 137 2,600 -526 Descending Atlanta TRACON
Sat 02:15:57 PM 34.0167 -84.5333 270° West 106 122 2,100 -550 Descending Atlanta TRACON
Sat 02:17:03 PM 34.0167 -84.5667 270° West 89 102 1,500 -545 Descending Atlanta TRACON

Login

Don't have an account? Register now (free) for customized features, flight alerts, and more!